createdAt,value
2022-10-02T00:01:40.789Z,76.04199
2022-10-02T00:03:40.744Z,75.98242
2022-10-02T00:05:40.680Z,75.76367
2022-10-02T00:09:06.559Z,76.23145
2022-10-02T00:11:06.515Z,75.63574
2022-10-02T00:13:06.531Z,75.0918
2022-10-02T00:15:06.552Z,75.50293
2022-10-02T00:17:06.560Z,75.70801
2022-10-02T00:19:06.560Z,75.45117
2022-10-02T00:21:06.551Z,76.77441
2022-10-02T00:24:01.201Z,76.89941
2022-10-02T00:26:01.184Z,77.19238
2022-10-02T00:28:01.362Z,77.07422
2022-10-02T00:30:01.176Z,77.45703
2022-10-02T00:32:01.359Z,77.95215
2022-10-02T00:34:01.211Z,78.20898
2022-10-02T00:36:01.302Z,79.38477
2022-10-02T00:38:57.372Z,79.2334
2022-10-02T00:40:57.334Z,79.07422
2022-10-02T00:42:57.343Z,78.22266
2022-10-02T00:44:57.288Z,78.18066
2022-10-02T00:46:57.308Z,78.35254
2022-10-02T00:48:57.335Z,78.23828
2022-10-02T00:50:57.329Z,77.91309
2022-10-02T00:52:57.409Z,77.51465
2022-10-02T00:54:13.362Z,77.15625
2022-10-02T00:56:13.303Z,76.54688
2022-10-02T00:58:13.246Z,76.42285
2022-10-02T01:00:13.265Z,76.28418
2022-10-02T01:02:13.400Z,76.19824
2022-10-02T01:04:13.255Z,76.13281
2022-10-02T01:06:13.256Z,76.04883
2022-10-02T01:10:07.466Z,75.70117
2022-10-02T01:12:07.425Z,75.5752
2022-10-02T01:14:07.400Z,75.69141
2022-10-02T01:16:07.503Z,75.44141
2022-10-02T01:18:07.398Z,75.47168
2022-10-02T01:20:07.422Z,75.32422
2022-10-02T01:22:07.408Z,75.35254
2022-10-02T01:24:57.581Z,75.53125
2022-10-02T01:26:57.446Z,75.42578
2022-10-02T01:28:57.443Z,75.42578
2022-10-02T01:30:57.405Z,75.44824
2022-10-02T01:32:57.457Z,75.37305
2022-10-02T01:34:57.414Z,75.89941
2022-10-02T01:36:57.406Z,75.2373
2022-10-02T01:40:16.150Z,74.84473
2022-10-02T01:42:16.318Z,74.69824
2022-10-02T01:44:16.104Z,74.60352
2022-10-02T01:46:16.254Z,75.4834
2022-10-02T01:48:16.135Z,75.35156
2022-10-02T01:50:16.138Z,74.56934
2022-10-02T01:52:16.095Z,74.9668
2022-10-02T01:55:15.097Z,74.68164
2022-10-02T01:57:15.071Z,74.45996
2022-10-02T01:59:15.197Z,73.91504
2022-10-02T02:01:15.116Z,74.20703
2022-10-02T02:03:15.044Z,74.22754
2022-10-02T02:05:15.109Z,74.47656
2022-10-02T02:07:15.060Z,74.41797
2022-10-02T02:10:25.809Z,75.04883
2022-10-02T02:12:25.777Z,75.28711
2022-10-02T02:14:25.811Z,75.60059
2022-10-02T02:16:25.899Z,75.86426
2022-10-02T02:18:25.783Z,75.08008
2022-10-02T02:20:25.810Z,75.36133
2022-10-02T02:22:25.761Z,75.56641
2022-10-02T02:25:30.251Z,75.23242
2022-10-02T02:27:30.195Z,75.04883
2022-10-02T02:29:30.253Z,75.06738
2022-10-02T02:31:30.383Z,74.74707
2022-10-02T02:33:30.226Z,74.82715
2022-10-02T02:35:30.247Z,75.25391
2022-10-02T02:37:30.216Z,74.81641
2022-10-02T02:40:40.057Z,74.84277
2022-10-02T02:42:40.070Z,74.72949
2022-10-02T02:44:40.077Z,75.60156
2022-10-02T02:46:40.030Z,75.35156
2022-10-02T02:48:40.098Z,75.07031
2022-10-02T02:50:40.050Z,75.18652
2022-10-02T02:52:40.118Z,75.4375
2022-10-02T02:55:31.847Z,75.34863
2022-10-02T02:57:31.892Z,74.71387
2022-10-02T02:59:31.892Z,75.29297
2022-10-02T03:01:32.172Z,75.95117
2022-10-02T03:03:31.868Z,75.82227
2022-10-02T03:05:31.850Z,75.93066
2022-10-02T03:07:31.879Z,75.31836
2022-10-02T03:09:31.845Z,75.48047
2022-10-02T03:10:57.456Z,75.56445
2022-10-02T03:12:57.495Z,75.50098
2022-10-02T03:14:57.483Z,75.89551
2022-10-02T03:16:57.500Z,76.40625
2022-10-02T03:18:57.482Z,76.17285
2022-10-02T03:20:57.441Z,75.81348
2022-10-02T03:22:57.435Z,75.47852
2022-10-02T03:25:57.546Z,75.16699
2022-10-02T03:27:57.852Z,74.96777
2022-10-02T03:29:57.510Z,74.86719
2022-10-02T03:31:57.527Z,74.7373
2022-10-02T03:33:57.553Z,74.71973
2022-10-02T03:35:57.521Z,74.62402
2022-10-02T03:37:57.497Z,74.54395
2022-10-02T03:40:59.251Z,74.12012
2022-10-02T03:42:59.239Z,73.93652
2022-10-02T03:44:59.308Z,74.17969
2022-10-02T03:46:59.234Z,73.89551
2022-10-02T03:48:59.229Z,73.66113
2022-10-02T03:50:59.309Z,73.76074
2022-10-02T03:52:59.278Z,73.74414
2022-10-02T03:54:59.231Z,73.4043
2022-10-02T03:56:47.189Z,73.58301
2022-10-02T03:58:47.183Z,73.68457
2022-10-02T04:00:47.143Z,73.99121
2022-10-02T04:02:47.147Z,73.8457
2022-10-02T04:04:47.163Z,73.58301
2022-10-02T04:06:47.230Z,73.65039
2022-10-02T04:08:47.185Z,73.92676
2022-10-02T04:11:13.608Z,74.37207
2022-10-02T04:13:13.603Z,74.49414
2022-10-02T04:15:13.608Z,74.58105
2022-10-02T04:17:13.594Z,74.69043
2022-10-02T04:19:13.606Z,74.21191
2022-10-02T04:21:13.639Z,74.67188
2022-10-02T04:23:13.633Z,74.89844
2022-10-02T04:25:13.585Z,74.39941
2022-10-02T04:26:42.902Z,74.51563
2022-10-02T04:28:42.886Z,74.49316
2022-10-02T04:30:42.897Z,75.0332
2022-10-02T04:32:42.898Z,74.54492
2022-10-02T04:34:42.891Z,74.67188
2022-10-02T04:36:42.911Z,74.86816
2022-10-02T04:38:42.936Z,74.77344
2022-10-02T04:42:09.328Z,75.16504
2022-10-02T04:44:09.370Z,74.62207
2022-10-02T04:46:09.457Z,75.49121
2022-10-02T04:48:09.364Z,75.67188
2022-10-02T04:50:09.332Z,75.19434
2022-10-02T04:52:09.310Z,74.96777
2022-10-02T04:54:09.399Z,74.49707
2022-10-02T04:57:05.365Z,75.49707
2022-10-02T04:59:05.298Z,76.05371
2022-10-02T05:01:05.394Z,75.57031
2022-10-02T05:03:05.320Z,75.52539
2022-10-02T05:05:05.317Z,74.92188
2022-10-02T05:07:05.327Z,75.75684
2022-10-02T05:09:05.290Z,75.89355
2022-10-02T05:12:33.462Z,76.55664
2022-10-02T05:14:33.367Z,76.50391
2022-10-02T05:16:34.134Z,76.06348
2022-10-02T05:18:33.515Z,75.79199
2022-10-02T05:20:33.368Z,76.03125
2022-10-02T05:22:33.378Z,75.89258
2022-10-02T05:24:33.404Z,75.00781
2022-10-02T05:27:01.136Z,75.37598
2022-10-02T05:29:01.226Z,73.17383
2022-10-02T05:31:01.265Z,73.14355
2022-10-02T05:33:01.152Z,71.54883
2022-10-02T05:35:01.153Z,74.58789
2022-10-02T05:37:01.163Z,74.56934
2022-10-02T05:39:01.227Z,69.85645
2022-10-02T05:41:01.282Z,68.73242
2022-10-02T05:42:18.849Z,68.9668
2022-10-02T05:44:18.790Z,68.85449
2022-10-02T05:46:18.795Z,69.77051
2022-10-02T05:48:18.716Z,70.5127
2022-10-02T05:50:18.746Z,70.01465
2022-10-02T05:52:18.805Z,69.21582
2022-10-02T05:54:18.744Z,68.63672
2022-10-02T05:56:21.730Z,69.93848
2022-10-02T05:58:05.904Z,69.81445
2022-10-02T06:00:06.920Z,69.46387
2022-10-02T06:02:05.998Z,70.33105
2022-10-02T06:04:05.890Z,70.76758
2022-10-02T06:06:05.905Z,69.85156
2022-10-02T06:08:05.858Z,69.64258
2022-10-02T06:10:05.856Z,70.43164
2022-10-02T06:13:08.021Z,70.40234
2022-10-02T06:15:08.006Z,68.46191
2022-10-02T06:17:08.071Z,66.44629
2022-10-02T06:19:08.060Z,69.5166
2022-10-02T06:21:08.039Z,67.3457
2022-10-02T06:23:08.060Z,69.62891
2022-10-02T06:25:08.043Z,68.60547
2022-10-02T06:28:37.182Z,68.66699
2022-10-02T06:30:37.196Z,69.00195
2022-10-02T06:32:37.269Z,69.05078
2022-10-02T06:34:37.176Z,68.49121
2022-10-02T06:36:37.823Z,67.70996
2022-10-02T06:38:37.244Z,69.6582
2022-10-02T06:40:37.191Z,68.29102
2022-10-02T06:43:05.458Z,68.50684
2022-10-02T06:45:05.438Z,70.08984
2022-10-02T06:47:05.488Z,68.55664
2022-10-02T06:49:05.504Z,69.69336
2022-10-02T06:51:05.491Z,69.60352
2022-10-02T06:53:05.473Z,68.01953
2022-10-02T06:55:05.450Z,69.85645
2022-10-02T06:58:59.846Z,67.37891
2022-10-02T07:01:00.017Z,66.77246
2022-10-02T07:02:59.887Z,65.74121
2022-10-02T07:04:59.871Z,65.72168
2022-10-02T07:06:59.891Z,64.45996
2022-10-02T07:08:59.799Z,63.6377
2022-10-02T07:10:59.829Z,61.29688
2022-10-02T07:13:30.934Z,62.61426
2022-10-02T07:15:30.888Z,63.31348
2022-10-02T07:17:30.990Z,62.79395
2022-10-02T07:19:30.945Z,63.1875
2022-10-02T07:21:31.037Z,63.9375
2022-10-02T07:23:30.949Z,62.47266
2022-10-02T07:25:30.955Z,60.74121
2022-10-02T07:29:16.521Z,60.22852
2022-10-02T07:31:16.655Z,59.46094
2022-10-02T07:33:16.538Z,61.21973
2022-10-02T07:35:16.515Z,63.61914
2022-10-02T07:37:16.561Z,61.12012
2022-10-02T07:39:16.586Z,61.66113
2022-10-02T07:41:16.502Z,62.77637
2022-10-02T07:44:11.148Z,62.50488
2022-10-02T07:46:11.256Z,63.48633
2022-10-02T07:48:11.125Z,58.8291
2022-10-02T07:50:11.256Z,58.84082
2022-10-02T07:52:11.182Z,61.47559
2022-10-02T07:54:11.177Z,57.27051
2022-10-02T07:56:11.168Z,58.7207
2022-10-02T07:58:53.707Z,60.20313
2022-10-02T08:00:53.758Z,60.95508
2022-10-02T08:02:53.851Z,59.81641
2022-10-02T08:04:53.718Z,57.43457
2022-10-02T08:06:53.743Z,57.12891
2022-10-02T08:08:53.697Z,57.77148
2022-10-02T08:10:53.721Z,55.22949
2022-10-02T08:14:49.314Z,56.12012
2022-10-02T08:16:49.394Z,56.65918
2022-10-02T08:18:49.391Z,55.74805
2022-10-02T08:20:49.241Z,55.21777
2022-10-02T08:22:49.298Z,55.21289
2022-10-02T08:24:49.254Z,53.24512
2022-10-02T08:26:49.275Z,51.78027
2022-10-02T08:29:24.015Z,54.7373
2022-10-02T08:31:24.121Z,54.16992
2022-10-02T08:33:24.076Z,54.33887
2022-10-02T08:35:24.013Z,54.48926
2022-10-02T08:37:24.003Z,55.21582
2022-10-02T08:39:23.995Z,52.00098
2022-10-02T08:41:24.034Z,52.10547
2022-10-02T08:44:36.788Z,54.20996
2022-10-02T08:46:36.532Z,54.24805
2022-10-02T08:48:35.883Z,51.86523
2022-10-02T08:50:35.877Z,53.24121
2022-10-02T08:52:35.971Z,54.68945
2022-10-02T08:54:35.870Z,53.87598
2022-10-02T08:56:36.583Z,51.4082
2022-10-02T08:59:44.656Z,55.42578
2022-10-02T09:01:44.634Z,54.17773
2022-10-02T09:03:44.567Z,50.52148
2022-10-02T09:05:44.506Z,52.18457
2022-10-02T09:07:44.469Z,54.19238
2022-10-02T09:09:44.517Z,52.67871
2022-10-02T09:11:44.482Z,50.22168
2022-10-02T09:14:42.254Z,50.5625
2022-10-02T09:16:42.481Z,48.66211
2022-10-02T09:18:42.311Z,49.2793
2022-10-02T09:20:42.266Z,47.64551
2022-10-02T09:22:42.242Z,49.87793
2022-10-02T09:24:42.249Z,47.31738
2022-10-02T09:26:42.230Z,47.21094
2022-10-02T09:28:42.240Z,47.62695
2022-10-02T09:29:57.815Z,44.18945
2022-10-02T09:31:57.917Z,47.65137
2022-10-02T09:33:57.771Z,46.63184
2022-10-02T09:35:57.798Z,45.4082
2022-10-02T09:37:57.781Z,45.69043
2022-10-02T09:39:57.742Z,46.36719
2022-10-02T09:41:57.827Z,48.00781
2022-10-02T09:45:30.911Z,47.61914
2022-10-02T09:47:30.769Z,45.86426
2022-10-02T09:49:30.715Z,46.3457
2022-10-02T09:51:30.765Z,45.5293
2022-10-02T09:53:30.718Z,45.25781
2022-10-02T09:55:30.757Z,45.32813
2022-10-02T09:57:30.731Z,45.16797
2022-10-02T10:00:37.892Z,44.44238
2022-10-02T10:02:38.072Z,45.41699
2022-10-02T10:05:04.865Z,43.04004
2022-10-02T10:06:38.609Z,45.80176
2022-10-02T10:08:37.824Z,46.74023
2022-10-02T10:10:37.851Z,44.36523
2022-10-02T10:12:37.838Z,46.87207
2022-10-02T10:15:35.037Z,45.31152
2022-10-02T10:17:35.048Z,44.58691
2022-10-02T10:19:35.128Z,44.31348
2022-10-02T10:21:35.546Z,44.96875
2022-10-02T10:23:35.027Z,45.88965
2022-10-02T10:25:35.051Z,45.21289
2022-10-02T10:27:35.022Z,46.34668
2022-10-02T10:31:15.022Z,47.84961
2022-10-02T10:33:14.961Z,47.03027
2022-10-02T10:35:15.095Z,47.11816
2022-10-02T10:37:14.941Z,46.45215
2022-10-02T10:39:14.933Z,46.1416
2022-10-02T10:41:14.963Z,45.98926
2022-10-02T10:43:17.114Z,47.29883
2022-10-02T10:46:30.568Z,49.72559
2022-10-02T10:48:30.592Z,47.28711
2022-10-02T10:50:30.625Z,47.83691
2022-10-02T10:52:30.551Z,47.4375
2022-10-02T10:54:30.563Z,46.85938
2022-10-02T10:56:30.513Z,48.58789
2022-10-02T10:58:30.552Z,47.62305
2022-10-02T11:01:27.195Z,46.69727
2022-10-02T11:03:27.056Z,48.6377
2022-10-02T11:05:27.044Z,47.58301
2022-10-02T11:07:27.053Z,48.13477
2022-10-02T11:09:27.063Z,47.36816
2022-10-02T11:11:27.042Z,47.12988
2022-10-02T11:13:27.046Z,47.11523
2022-10-02T11:16:07.985Z,47.64941
2022-10-02T11:18:07.898Z,48.20605
2022-10-02T11:20:07.877Z,46.74121
2022-10-02T11:22:07.881Z,48.97168
2022-10-02T11:24:08.013Z,46.75781
2022-10-02T11:26:07.863Z,45.91504
2022-10-02T11:28:07.942Z,48.0625
2022-10-02T11:31:27.372Z,46.06641
2022-10-02T11:33:27.305Z,47.02734
2022-10-02T11:35:27.374Z,46.80566
2022-10-02T11:37:27.328Z,45.69531
2022-10-02T11:39:27.402Z,46.56445
2022-10-02T11:41:27.293Z,46.31445
2022-10-02T11:43:27.422Z,46.54492
2022-10-02T11:46:28.739Z,44.71094
2022-10-02T11:48:28.698Z,45.94043
2022-10-02T11:50:28.733Z,45.44922
2022-10-02T11:52:28.703Z,46.42285
2022-10-02T11:54:28.714Z,45.19727
2022-10-02T11:56:28.854Z,43.42871
2022-10-02T11:58:28.719Z,43.83984
2022-10-02T12:02:00.596Z,45.39453
2022-10-02T12:04:00.349Z,43.92383
2022-10-02T12:06:00.389Z,43.69336
2022-10-02T12:08:00.397Z,45.01074
2022-10-02T12:10:00.375Z,44.7207
2022-10-02T12:12:00.334Z,43.76367
2022-10-02T12:14:00.323Z,45.15137
2022-10-02T12:17:28.607Z,46.84766
2022-10-02T12:19:28.651Z,46.3916
2022-10-02T12:21:28.679Z,45.8252
2022-10-02T12:23:28.608Z,45.63379
2022-10-02T12:25:29.080Z,47.13867
2022-10-02T12:27:28.648Z,45.73438
2022-10-02T12:29:28.637Z,46.01367
2022-10-02T12:32:00.208Z,45.95605
2022-10-02T12:34:00.754Z,45.78223
2022-10-02T12:36:00.029Z,47.69922
2022-10-02T12:38:00.057Z,45.61426
2022-10-02T12:40:00.038Z,46.15039
2022-10-02T12:42:00.063Z,45.98926
2022-10-02T12:44:00.114Z,45.58594
2022-10-02T12:47:35.657Z,45.34082
2022-10-02T12:49:35.724Z,44.72266
2022-10-02T12:51:36.550Z,45.84668
2022-10-02T12:53:35.684Z,44.72168
2022-10-02T12:55:35.690Z,44.53809
2022-10-02T12:57:39.548Z,44.71289
2022-10-02T12:59:35.883Z,44.69336
2022-10-02T13:02:14.826Z,45.00391
2022-10-02T13:04:14.635Z,45.66504
2022-10-02T13:06:14.632Z,46.64844
2022-10-02T13:08:14.633Z,44.53125
2022-10-02T13:10:14.608Z,43.7666
2022-10-02T13:12:14.695Z,44.96777
2022-10-02T13:14:14.646Z,44.35938
2022-10-02T13:17:21.411Z,44.58496
2022-10-02T13:19:21.491Z,45.7002
2022-10-02T13:21:21.410Z,43.4707
2022-10-02T13:23:21.348Z,44.65234
2022-10-02T13:25:21.374Z,44.58887
2022-10-02T13:27:21.396Z,44.26465
2022-10-02T13:29:21.407Z,44.86426
2022-10-02T13:32:39.095Z,43.40039
2022-10-02T13:34:38.957Z,42.89258
2022-10-02T13:36:38.993Z,42.62891
2022-10-02T13:38:38.967Z,44.68164
2022-10-02T13:40:38.935Z,43.68457
2022-10-02T13:42:38.934Z,42.47949
2022-10-02T13:44:38.968Z,42.46777
2022-10-02T13:47:43.721Z,42.1377
2022-10-02T13:49:43.948Z,42.53027
2022-10-02T13:51:43.604Z,42.79395
2022-10-02T13:53:43.614Z,41.71973
2022-10-02T13:55:43.606Z,43.66699
2022-10-02T13:57:43.628Z,44.17676
2022-10-02T13:59:43.710Z,43.51074
2022-10-02T14:02:51.337Z,41.67285
2022-10-02T14:04:51.638Z,42.28516
2022-10-02T14:06:51.298Z,42.75879
2022-10-02T14:08:51.241Z,43.83691
2022-10-02T14:10:51.284Z,44.5166
2022-10-02T14:12:51.215Z,44.41895
2022-10-02T14:14:51.312Z,43.25488
2022-10-02T14:17:59.239Z,44.23535
2022-10-02T14:19:59.555Z,44.96289
2022-10-02T14:21:59.354Z,44.83789
2022-10-02T14:23:59.745Z,44.48145
2022-10-02T14:25:59.306Z,43.15039
2022-10-02T14:27:59.250Z,42.75684
2022-10-02T14:29:59.111Z,44.30566
2022-10-02T14:31:59.174Z,44.37012
2022-10-02T14:33:37.119Z,44.24414
2022-10-02T14:35:37.067Z,44.39355
2022-10-02T14:37:37.085Z,43.85742
2022-10-02T14:39:37.068Z,42.92578
2022-10-02T14:41:37.718Z,44.57617
2022-10-02T14:43:37.080Z,43.53027
2022-10-02T14:45:37.176Z,43.09766
2022-10-02T14:49:00.375Z,44.7627
2022-10-02T14:51:00.267Z,46.73633
2022-10-02T14:53:00.297Z,46.46094
2022-10-02T14:55:00.269Z,46.50879
2022-10-02T14:57:00.280Z,46.60156
2022-10-02T14:59:00.456Z,44.03613
2022-10-02T15:01:00.372Z,45.50586
2022-10-02T15:03:34.033Z,45.16016
2022-10-02T15:05:34.143Z,45.65332
2022-10-02T15:07:34.021Z,46.4209
2022-10-02T15:09:34.092Z,46.53516
2022-10-02T15:11:34.638Z,47.24414
2022-10-02T15:13:34.030Z,47.63867
2022-10-02T15:15:34.088Z,47.16992
2022-10-02T15:19:12.888Z,48.44824
2022-10-02T15:21:12.962Z,46.75977
2022-10-02T15:23:12.927Z,47.24121
2022-10-02T15:25:18.355Z,49.02539
2022-10-02T15:27:12.901Z,50.27539
2022-10-02T15:29:13.069Z,51.00488
2022-10-02T15:31:12.992Z,48.77734
2022-10-02T15:34:12.813Z,50.79785
2022-10-02T15:36:12.813Z,49.64941
2022-10-02T15:38:12.822Z,49.04004
2022-10-02T15:40:12.853Z,49.1377
2022-10-02T15:42:12.777Z,50.54395
2022-10-02T15:44:12.925Z,51.18359
2022-10-02T15:46:12.855Z,50.77539
2022-10-02T15:48:53.914Z,51.48535
2022-10-02T15:50:53.901Z,51.2168
2022-10-02T15:52:53.867Z,51.93359
2022-10-02T15:54:54.088Z,52.44336
2022-10-02T15:56:53.855Z,53.11816
2022-10-02T15:58:53.866Z,53.55859
2022-10-02T16:00:53.989Z,54.18652
2022-10-02T16:02:53.880Z,53.99316
2022-10-02T16:04:48.311Z,54.30957
2022-10-02T16:06:48.382Z,55.02051
2022-10-02T16:08:48.308Z,55.92773
2022-10-02T16:10:48.327Z,55.67188
2022-10-02T16:12:48.369Z,56.24219
2022-10-02T16:14:48.274Z,56.28809
2022-10-02T16:16:48.515Z,56.41992
2022-10-02T16:19:12.545Z,56.49707
2022-10-02T16:21:12.503Z,56.58887
2022-10-02T16:23:12.515Z,56.28809
2022-10-02T16:25:12.528Z,56.75195
2022-10-02T16:27:12.607Z,56.89551
2022-10-02T16:29:12.588Z,56.82129
2022-10-02T16:31:12.581Z,56.96484
2022-10-02T16:33:12.503Z,57.61621
2022-10-02T16:34:35.792Z,57.83691
2022-10-02T16:36:36.395Z,57.8623
2022-10-02T16:38:35.690Z,58.08301
2022-10-02T16:40:35.710Z,58.08496
2022-10-02T16:42:35.734Z,58.62695
2022-10-02T16:44:35.717Z,58.91309
2022-10-02T16:46:36.462Z,58.73047
2022-10-02T16:49:44.712Z,59.18262
2022-10-02T16:51:44.759Z,59.29688
2022-10-02T16:53:44.707Z,59.59863
2022-10-02T16:55:44.756Z,59.85938
2022-10-02T16:57:44.869Z,59.87109
2022-10-02T16:59:44.776Z,59.84473
2022-10-02T17:02:16.183Z,59.46973
2022-10-02T17:04:51.423Z,59.79297
2022-10-02T17:06:51.459Z,59.66016
2022-10-02T17:08:51.471Z,59.84375
2022-10-02T17:10:51.392Z,60.38379
2022-10-02T17:12:51.546Z,60.17969
2022-10-02T17:14:51.410Z,59.78516
2022-10-02T17:16:51.508Z,60.31836
2022-10-02T17:20:11.992Z,60.06055
2022-10-02T17:22:11.507Z,60.16211
2022-10-02T17:24:11.404Z,60.32617
2022-10-02T17:26:11.413Z,60.4668
2022-10-02T17:28:11.597Z,60.71387
2022-10-02T17:30:11.457Z,60.98633
2022-10-02T17:32:11.433Z,60.81445
2022-10-02T17:35:05.705Z,61.03223
2022-10-02T17:37:05.724Z,61.31445
2022-10-02T17:39:05.726Z,61.05566
2022-10-02T17:41:06.033Z,61.25586
2022-10-02T17:43:05.707Z,61.24023
2022-10-02T17:45:05.723Z,61.67871
2022-10-02T17:47:05.715Z,61.65625
2022-10-02T17:49:05.723Z,61.72852
2022-10-02T17:50:27.546Z,61.81738
2022-10-02T17:52:27.557Z,61.65723
2022-10-02T17:54:27.622Z,61.80762
2022-10-02T17:56:27.569Z,61.94824
2022-10-02T17:58:27.553Z,62.11719
2022-10-02T18:00:27.628Z,62.29102
2022-10-02T18:02:27.723Z,62.22363
2022-10-02T18:05:38.608Z,62.30469
2022-10-02T18:07:38.685Z,62.68164
2022-10-02T18:09:38.585Z,62.69922
2022-10-02T18:11:38.929Z,62.75391
2022-10-02T18:13:38.573Z,62.94824
2022-10-02T18:15:38.650Z,62.85938
2022-10-02T18:17:38.767Z,63.20508
2022-10-02T18:20:48.097Z,63.22461
2022-10-02T18:22:47.873Z,63.47461
2022-10-02T18:24:47.868Z,63.67676
2022-10-02T18:26:47.858Z,63.87207
2022-10-02T18:28:48.295Z,63.83984
2022-10-02T18:30:47.902Z,63.72461
2022-10-02T18:32:48.011Z,64.13965
2022-10-02T18:36:30.722Z,63.86621
2022-10-02T18:38:30.642Z,64.25098
2022-10-02T18:40:30.695Z,64.45703
2022-10-02T18:42:30.677Z,64.5918
2022-10-02T18:44:30.612Z,64.81738
2022-10-02T18:46:30.678Z,64.72363
2022-10-02T18:48:30.649Z,64.46191
2022-10-02T18:51:05.254Z,64.58594
2022-10-02T18:53:05.298Z,64.50488
2022-10-02T18:55:05.191Z,64.85059
2022-10-02T18:57:05.226Z,64.99219
2022-10-02T18:59:05.252Z,64.9541
2022-10-02T19:01:05.411Z,64.82031
2022-10-02T19:03:05.402Z,65.14844
2022-10-02T19:06:32.627Z,64.97656
2022-10-02T19:08:32.490Z,65.33008
2022-10-02T19:10:32.538Z,65.12305
2022-10-02T19:12:32.474Z,65.27734
2022-10-02T19:14:32.524Z,65.27246
2022-10-02T19:16:32.764Z,65.62402
2022-10-02T19:18:32.553Z,65.46289
2022-10-02T19:21:29.333Z,65.36914
2022-10-02T19:23:29.351Z,65.20605
2022-10-02T19:25:29.274Z,65.13477
2022-10-02T19:27:29.357Z,65.50488
2022-10-02T19:29:29.302Z,65.41699
2022-10-02T19:31:29.562Z,65.18945
2022-10-02T19:33:29.241Z,65.49805
2022-10-02T19:36:28.375Z,65.48828
2022-10-02T19:38:28.363Z,65.69629
2022-10-02T19:40:28.336Z,66.29785
2022-10-02T19:42:28.287Z,66.74316
2022-10-02T19:44:28.373Z,66.13281
2022-10-02T19:46:28.347Z,65.91016
2022-10-02T19:48:28.331Z,65.90234
2022-10-02T19:50:28.347Z,66.08203
2022-10-02T19:51:37.080Z,66.18359
2022-10-02T19:53:36.550Z,65.96094
2022-10-02T19:55:36.479Z,66.0293
2022-10-02T19:57:36.464Z,65.74414
2022-10-02T19:59:36.459Z,66.12695
2022-10-02T20:01:37.040Z,66.12402
2022-10-02T20:03:36.411Z,65.8916
2022-10-02T20:05:36.429Z,65.82227
2022-10-02T20:07:36.626Z,66.16602
2022-10-02T20:09:36.576Z,66.01074
2022-10-02T20:11:37.137Z,66.08887
2022-10-02T20:13:37.862Z,66.00586
2022-10-02T20:15:36.608Z,66.06445
2022-10-02T20:17:36.757Z,65.94922
2022-10-02T20:19:36.576Z,65.91504
2022-10-02T20:22:18.814Z,65.95996
2022-10-02T20:24:18.776Z,66.39453
2022-10-02T20:26:18.687Z,66.17676
2022-10-02T20:28:19.020Z,66.08008
2022-10-02T20:30:18.758Z,66.24316
2022-10-02T20:32:18.737Z,66.31543
2022-10-02T20:34:18.733Z,66.52051
2022-10-02T20:37:12.847Z,66.90625
2022-10-02T20:39:12.834Z,66.72461
2022-10-02T20:41:12.922Z,66.75586
2022-10-02T20:43:12.796Z,66.85938
2022-10-02T20:45:12.920Z,66.79688
2022-10-02T20:47:12.837Z,67.13086
2022-10-02T20:49:12.799Z,67.15137
2022-10-02T20:52:26.661Z,67.06641
2022-10-02T20:54:26.673Z,67.27734
2022-10-02T20:56:26.760Z,67.39746
2022-10-02T20:58:26.643Z,67.19531
2022-10-02T21:00:26.728Z,67.74707
2022-10-02T21:02:26.737Z,67.13574
2022-10-02T21:04:26.665Z,67.2959
2022-10-02T21:07:58.292Z,67.41113
2022-10-02T21:09:58.290Z,67.44238
2022-10-02T21:11:58.408Z,67.5918
2022-10-02T21:13:58.296Z,67.76563
2022-10-02T21:15:58.298Z,67.68457
2022-10-02T21:17:58.356Z,67.58301
2022-10-02T21:19:58.294Z,67.42285
2022-10-02T21:23:14.555Z,67.10449
2022-10-02T21:25:14.478Z,68.10059
2022-10-02T21:27:14.549Z,68.08203
2022-10-02T21:29:14.488Z,68.03027
2022-10-02T21:31:14.665Z,67.87109
2022-10-02T21:33:14.611Z,67.74316
2022-10-02T21:35:14.526Z,67.69043
2022-10-02T21:38:21.293Z,67.78125
2022-10-02T21:40:21.301Z,67.85938
2022-10-02T21:42:21.357Z,68.19434
2022-10-02T21:44:21.226Z,68.24805
2022-10-02T21:46:21.340Z,68.20703
2022-10-02T21:48:21.208Z,68.32715
2022-10-02T21:50:21.248Z,68.16406
2022-10-02T21:53:09.554Z,67.92383
2022-10-02T21:55:09.554Z,68.00684
2022-10-02T21:57:09.534Z,67.65039
2022-10-02T21:59:09.589Z,67.81738
2022-10-02T22:01:09.675Z,67.83789
2022-10-02T22:03:09.573Z,67.81152
2022-10-02T22:05:09.537Z,68.24316
2022-10-02T22:08:33.723Z,68.21289
2022-10-02T22:10:33.820Z,68.80859
2022-10-02T22:12:33.717Z,68.82031
2022-10-02T22:14:33.834Z,68.61133
2022-10-02T22:16:33.732Z,68.58691
2022-10-02T22:18:33.776Z,68.8457
2022-10-02T22:20:33.701Z,68.65039
2022-10-02T22:23:30.973Z,68.5
2022-10-02T22:25:30.925Z,68.66504
2022-10-02T22:27:30.939Z,68.92773
2022-10-02T22:29:30.960Z,68.73535
2022-10-02T22:31:31.125Z,68.52344
2022-10-02T22:33:30.931Z,68.61914
2022-10-02T22:35:30.990Z,68.67773
2022-10-02T22:39:03.100Z,69.28711
2022-10-02T22:41:03.101Z,69.06641
2022-10-02T22:43:03.112Z,69.16602
2022-10-02T22:45:03.111Z,69.61133
2022-10-02T22:47:03.144Z,69.4043
2022-10-02T22:49:03.077Z,69.11914
2022-10-02T22:51:03.135Z,69.51074
2022-10-02T22:53:50.771Z,69.53613
2022-10-02T22:55:50.850Z,69.06738
2022-10-02T22:57:50.813Z,68.87305
2022-10-02T22:59:50.837Z,69.15625
2022-10-02T23:01:50.862Z,69.13379
2022-10-02T23:03:50.870Z,69.41016
2022-10-02T23:05:50.842Z,69.38184
2022-10-02T23:08:48.879Z,69.53516
2022-10-02T23:10:48.894Z,68.93945
2022-10-02T23:12:48.841Z,69.8125
2022-10-02T23:14:48.845Z,69.80762
2022-10-02T23:16:48.892Z,69.42773
2022-10-02T23:18:48.849Z,69.75977
2022-10-02T23:20:48.883Z,69.42578
2022-10-02T23:22:48.843Z,69.4375
2022-10-02T23:24:41.226Z,69.21289
2022-10-02T23:26:41.230Z,69.66406
2022-10-02T23:28:41.218Z,69.79688
2022-10-02T23:30:41.335Z,69.50684
2022-10-02T23:32:41.265Z,70.04004
2022-10-02T23:34:41.251Z,70.55762
2022-10-02T23:36:41.261Z,70.15723
2022-10-02T23:39:51.432Z,69.72461
2022-10-02T23:41:51.450Z,69.91406
2022-10-02T23:43:51.509Z,69.9707
2022-10-02T23:45:51.715Z,69.2373
2022-10-02T23:47:51.492Z,69.83691
2022-10-02T23:49:51.466Z,70.00977
2022-10-02T23:51:51.494Z,70.04297
2022-10-02T23:55:09.443Z,69.31543
2022-10-02T23:57:09.361Z,69.69238
2022-10-02T23:59:09.403Z,69.78613
